sensor_id;sensor_type;location;lat;lon;timestamp;P1;durP1;ratioP1;P2;durP2;ratioP2
13975;SDS011;7062;49.792;9.946;2022-08-19T00:01:48;24.20;;;21.80;;
13975;SDS011;7062;49.792;9.946;2022-08-19T00:04:17;23.90;;;21.57;;
13975;SDS011;7062;49.792;9.946;2022-08-19T00:06:44;23.73;;;21.43;;
13975;SDS011;7062;49.792;9.946;2022-08-19T00:09:12;25.00;;;22.47;;
13975;SDS011;7062;49.792;9.946;2022-08-19T00:11:42;24.63;;;22.00;;
13975;SDS011;7062;49.792;9.946;2022-08-19T00:14:09;22.60;;;20.37;;
13975;SDS011;7062;49.792;9.946;2022-08-19T00:16:37;23.57;;;21.37;;
13975;SDS011;7062;49.792;9.946;2022-08-19T00:19:05;23.93;;;21.50;;
13975;SDS011;7062;49.792;9.946;2022-08-19T00:21:32;23.73;;;21.40;;
13975;SDS011;7062;49.792;9.946;2022-08-19T00:24:00;23.67;;;20.73;;
13975;SDS011;7062;49.792;9.946;2022-08-19T00:26:27;22.30;;;20.13;;
13975;SDS011;7062;49.792;9.946;2022-08-19T00:28:53;23.70;;;21.50;;
13975;SDS011;7062;49.792;9.946;2022-08-19T00:31:19;25.13;;;21.83;;
13975;SDS011;7062;49.792;9.946;2022-08-19T00:33:45;24.53;;;22.13;;
13975;SDS011;7062;49.792;9.946;2022-08-19T00:36:11;22.97;;;20.77;;
13975;SDS011;7062;49.792;9.946;2022-08-19T00:38:37;22.77;;;20.20;;
13975;SDS011;7062;49.792;9.946;2022-08-19T00:41:06;24.03;;;21.60;;
13975;SDS011;7062;49.792;9.946;2022-08-19T00:43:33;22.73;;;20.33;;
13975;SDS011;7062;49.792;9.946;2022-08-19T00:45:59;23.57;;;21.10;;
13975;SDS011;7062;49.792;9.946;2022-08-19T00:48:29;21.67;;;19.37;;
13975;SDS011;7062;49.792;9.946;2022-08-19T00:50:56;24.40;;;21.43;;
13975;SDS011;7062;49.792;9.946;2022-08-19T00:53:24;24.00;;;21.40;;
13975;SDS011;7062;49.792;9.946;2022-08-19T00:55:53;22.60;;;20.23;;
13975;SDS011;7062;49.792;9.946;2022-08-19T00:58:22;23.37;;;20.97;;
13975;SDS011;7062;49.792;9.946;2022-08-19T01:00:52;21.43;;;19.33;;
13975;SDS011;7062;49.792;9.946;2022-08-19T01:03:18;24.70;;;21.87;;
13975;SDS011;7062;49.792;9.946;2022-08-19T01:05:46;23.00;;;20.57;;
13975;SDS011;7062;49.792;9.946;2022-08-19T01:08:13;22.93;;;20.70;;
13975;SDS011;7062;49.792;9.946;2022-08-19T01:10:42;23.30;;;20.90;;
13975;SDS011;7062;49.792;9.946;2022-08-19T01:13:13;22.73;;;19.97;;
13975;SDS011;7062;49.792;9.946;2022-08-19T01:15:45;22.53;;;20.20;;
13975;SDS011;7062;49.792;9.946;2022-08-19T01:18:17;22.73;;;20.40;;
13975;SDS011;7062;49.792;9.946;2022-08-19T01:20:44;21.43;;;19.43;;
13975;SDS011;7062;49.792;9.946;2022-08-19T01:23:10;23.27;;;20.87;;
13975;SDS011;7062;49.792;9.946;2022-08-19T01:28:05;24.00;;;21.47;;
13975;SDS011;7062;49.792;9.946;2022-08-19T01:30:33;21.43;;;19.20;;
13975;SDS011;7062;49.792;9.946;2022-08-19T01:33:00;21.17;;;19.07;;
13975;SDS011;7062;49.792;9.946;2022-08-19T01:35:27;22.03;;;19.63;;
13975;SDS011;7062;49.792;9.946;2022-08-19T01:37:56;22.43;;;19.93;;
13975;SDS011;7062;49.792;9.946;2022-08-19T01:40:25;22.37;;;20.07;;
13975;SDS011;7062;49.792;9.946;2022-08-19T01:42:54;21.43;;;19.27;;
13975;SDS011;7062;49.792;9.946;2022-08-19T01:45:21;22.23;;;19.07;;
13975;SDS011;7062;49.792;9.946;2022-08-19T01:47:49;20.83;;;18.83;;
13975;SDS011;7062;49.792;9.946;2022-08-19T01:50:15;21.73;;;19.63;;
13975;SDS011;7062;49.792;9.946;2022-08-19T01:52:42;20.77;;;18.53;;
13975;SDS011;7062;49.792;9.946;2022-08-19T01:55:10;21.33;;;19.17;;
13975;SDS011;7062;49.792;9.946;2022-08-19T01:57:38;22.13;;;19.83;;
13975;SDS011;7062;49.792;9.946;2022-08-19T02:00:07;19.80;;;17.87;;
13975;SDS011;7062;49.792;9.946;2022-08-19T02:02:35;21.87;;;19.27;;
13975;SDS011;7062;49.792;9.946;2022-08-19T02:05:00;20.27;;;18.27;;
13975;SDS011;7062;49.792;9.946;2022-08-19T02:07:26;20.63;;;18.73;;
13975;SDS011;7062;49.792;9.946;2022-08-19T02:09:53;21.57;;;19.47;;
13975;SDS011;7062;49.792;9.946;2022-08-19T02:12:20;22.17;;;19.90;;
13975;SDS011;7062;49.792;9.946;2022-08-19T02:14:46;22.60;;;20.23;;
13975;SDS011;7062;49.792;9.946;2022-08-19T02:17:11;21.53;;;19.03;;
13975;SDS011;7062;49.792;9.946;2022-08-19T02:19:37;22.17;;;19.13;;
13975;SDS011;7062;49.792;9.946;2022-08-19T02:22:03;21.30;;;19.13;;
13975;SDS011;7062;49.792;9.946;2022-08-19T02:24:29;21.07;;;19.07;;
13975;SDS011;7062;49.792;9.946;2022-08-19T02:26:55;20.33;;;18.33;;
13975;SDS011;7062;49.792;9.946;2022-08-19T02:29:20;22.17;;;19.87;;
13975;SDS011;7062;49.792;9.946;2022-08-19T02:31:46;20.60;;;18.47;;
13975;SDS011;7062;49.792;9.946;2022-08-19T02:34:12;22.17;;;19.77;;
13975;SDS011;7062;49.792;9.946;2022-08-19T02:36:38;19.40;;;17.37;;
13975;SDS011;7062;49.792;9.946;2022-08-19T02:39:03;20.73;;;18.63;;
13975;SDS011;7062;49.792;9.946;2022-08-19T02:41:29;22.83;;;20.63;;
13975;SDS011;7062;49.792;9.946;2022-08-19T02:43:57;23.47;;;21.00;;
13975;SDS011;7062;49.792;9.946;2022-08-19T02:46:30;21.73;;;19.63;;
13975;SDS011;7062;49.792;9.946;2022-08-19T02:48:59;20.83;;;18.83;;
13975;SDS011;7062;49.792;9.946;2022-08-19T02:51:32;20.90;;;18.90;;
13975;SDS011;7062;49.792;9.946;2022-08-19T02:54:03;22.00;;;19.77;;
13975;SDS011;7062;49.792;9.946;2022-08-19T02:56:30;21.93;;;19.73;;
13975;SDS011;7062;49.792;9.946;2022-08-19T02:58:56;21.80;;;19.60;;
13975;SDS011;7062;49.792;9.946;2022-08-19T03:01:29;23.13;;;20.73;;
13975;SDS011;7062;49.792;9.946;2022-08-19T03:03:57;21.83;;;19.17;;
13975;SDS011;7062;49.792;9.946;2022-08-19T03:06:24;22.63;;;20.30;;
13975;SDS011;7062;49.792;9.946;2022-08-19T03:08:51;21.73;;;18.93;;
13975;SDS011;7062;49.792;9.946;2022-08-19T03:11:20;20.67;;;18.53;;
13975;SDS011;7062;49.792;9.946;2022-08-19T03:13:48;21.37;;;19.33;;
13975;SDS011;7062;49.792;9.946;2022-08-19T03:16:16;20.17;;;18.10;;
13975;SDS011;7062;49.792;9.946;2022-08-19T03:18:43;22.43;;;19.30;;
13975;SDS011;7062;49.792;9.946;2022-08-19T03:21:09;23.10;;;19.27;;
13975;SDS011;7062;49.792;9.946;2022-08-19T03:23:39;21.53;;;19.27;;
13975;SDS011;7062;49.792;9.946;2022-08-19T03:26:05;21.07;;;18.90;;
13975;SDS011;7062;49.792;9.946;2022-08-19T03:28:31;20.77;;;18.60;;
13975;SDS011;7062;49.792;9.946;2022-08-19T03:30:58;22.90;;;19.93;;
13975;SDS011;7062;49.792;9.946;2022-08-19T03:33:26;21.57;;;19.43;;
13975;SDS011;7062;49.792;9.946;2022-08-19T03:36:00;20.40;;;18.30;;
13975;SDS011;7062;49.792;9.946;2022-08-19T03:38:26;21.40;;;19.30;;
13975;SDS011;7062;49.792;9.946;2022-08-19T03:40:51;19.87;;;17.90;;
13975;SDS011;7062;49.792;9.946;2022-08-19T03:43:17;20.10;;;18.20;;
13975;SDS011;7062;49.792;9.946;2022-08-19T03:45:44;20.83;;;18.63;;
13975;SDS011;7062;49.792;9.946;2022-08-19T03:48:09;21.63;;;18.10;;
13975;SDS011;7062;49.792;9.946;2022-08-19T03:50:38;20.83;;;18.13;;
13975;SDS011;7062;49.792;9.946;2022-08-19T03:53:05;20.27;;;18.33;;
13975;SDS011;7062;49.792;9.946;2022-08-19T03:55:31;19.77;;;17.83;;
13975;SDS011;7062;49.792;9.946;2022-08-19T03:57:56;19.60;;;17.63;;
13975;SDS011;7062;49.792;9.946;2022-08-19T04:00:22;22.30;;;19.83;;
13975;SDS011;7062;49.792;9.946;2022-08-19T04:02:48;19.87;;;17.73;;
13975;SDS011;7062;49.792;9.946;2022-08-19T04:05:13;21.33;;;19.23;;
13975;SDS011;7062;49.792;9.946;2022-08-19T04:07:39;20.80;;;18.70;;
13975;SDS011;7062;49.792;9.946;2022-08-19T04:10:05;19.87;;;17.97;;
13975;SDS011;7062;49.792;9.946;2022-08-19T04:12:31;21.97;;;19.67;;
13975;SDS011;7062;49.792;9.946;2022-08-19T04:14:57;21.60;;;18.83;;
13975;SDS011;7062;49.792;9.946;2022-08-19T04:17:23;20.20;;;18.30;;
13975;SDS011;7062;49.792;9.946;2022-08-19T04:19:49;20.97;;;18.87;;
13975;SDS011;7062;49.792;9.946;2022-08-19T04:22:14;21.70;;;19.47;;
13975;SDS011;7062;49.792;9.946;2022-08-19T04:24:40;22.23;;;19.90;;
13975;SDS011;7062;49.792;9.946;2022-08-19T04:27:06;20.10;;;18.10;;
13975;SDS011;7062;49.792;9.946;2022-08-19T04:29:32;22.90;;;20.50;;
13975;SDS011;7062;49.792;9.946;2022-08-19T04:31:58;22.80;;;20.40;;
13975;SDS011;7062;49.792;9.946;2022-08-19T04:34:25;21.77;;;19.50;;
13975;SDS011;7062;49.792;9.946;2022-08-19T04:36:53;21.97;;;19.87;;
13975;SDS011;7062;49.792;9.946;2022-08-19T04:39:20;20.77;;;18.73;;
13975;SDS011;7062;49.792;9.946;2022-08-19T04:42:12;20.50;;;18.27;;
13975;SDS011;7062;49.792;9.946;2022-08-19T04:44:57;21.13;;;18.97;;
13975;SDS011;7062;49.792;9.946;2022-08-19T04:47:23;18.97;;;17.07;;
13975;SDS011;7062;49.792;9.946;2022-08-19T04:49:49;21.00;;;16.73;;
13975;SDS011;7062;49.792;9.946;2022-08-19T04:52:15;19.83;;;17.73;;
13975;SDS011;7062;49.792;9.946;2022-08-19T04:54:40;20.23;;;18.17;;
13975;SDS011;7062;49.792;9.946;2022-08-19T04:57:07;19.70;;;17.70;;
13975;SDS011;7062;49.792;9.946;2022-08-19T04:59:33;20.57;;;18.50;;
13975;SDS011;7062;49.792;9.946;2022-08-19T05:01:59;19.77;;;17.87;;
13975;SDS011;7062;49.792;9.946;2022-08-19T05:04:25;19.00;;;17.10;;
13975;SDS011;7062;49.792;9.946;2022-08-19T05:06:50;19.63;;;17.60;;
13975;SDS011;7062;49.792;9.946;2022-08-19T05:09:18;18.97;;;16.97;;
13975;SDS011;7062;49.792;9.946;2022-08-19T05:11:44;19.67;;;17.63;;
13975;SDS011;7062;49.792;9.946;2022-08-19T05:14:10;21.40;;;17.53;;
13975;SDS011;7062;49.792;9.946;2022-08-19T05:16:37;20.37;;;18.30;;
13975;SDS011;7062;49.792;9.946;2022-08-19T05:19:04;25.33;;;17.57;;
13975;SDS011;7062;49.792;9.946;2022-08-19T05:21:48;23.13;;;18.53;;
13975;SDS011;7062;49.792;9.946;2022-08-19T05:24:32;21.37;;;17.17;;
13975;SDS011;7062;49.792;9.946;2022-08-19T05:26:59;18.67;;;16.43;;
13975;SDS011;7062;49.792;9.946;2022-08-19T05:29:27;17.80;;;15.97;;
13975;SDS011;7062;49.792;9.946;2022-08-19T05:31:54;19.80;;;17.80;;
13975;SDS011;7062;49.792;9.946;2022-08-19T05:34:21;18.03;;;16.23;;
13975;SDS011;7062;49.792;9.946;2022-08-19T05:36:49;18.87;;;16.50;;
13975;SDS011;7062;49.792;9.946;2022-08-19T05:39:20;19.63;;;16.90;;
13975;SDS011;7062;49.792;9.946;2022-08-19T05:41:47;16.50;;;14.83;;
13975;SDS011;7062;49.792;9.946;2022-08-19T05:44:15;16.93;;;15.17;;
13975;SDS011;7062;49.792;9.946;2022-08-19T05:46:45;17.23;;;15.43;;
13975;SDS011;7062;49.792;9.946;2022-08-19T05:49:14;18.80;;;16.90;;
13975;SDS011;7062;49.792;9.946;2022-08-19T05:51:41;17.20;;;15.57;;
13975;SDS011;7062;49.792;9.946;2022-08-19T05:54:07;16.80;;;15.27;;
13975;SDS011;7062;49.792;9.946;2022-08-19T05:56:33;17.57;;;15.87;;
13975;SDS011;7062;49.792;9.946;2022-08-19T05:59:03;16.33;;;14.63;;
13975;SDS011;7062;49.792;9.946;2022-08-19T06:01:34;17.60;;;16.10;;
13975;SDS011;7062;49.792;9.946;2022-08-19T06:04:01;17.07;;;15.27;;
13975;SDS011;7062;49.792;9.946;2022-08-19T06:06:28;16.47;;;14.97;;
13975;SDS011;7062;49.792;9.946;2022-08-19T06:08:53;16.60;;;14.97;;
13975;SDS011;7062;49.792;9.946;2022-08-19T06:11:23;16.07;;;14.57;;
13975;SDS011;7062;49.792;9.946;2022-08-19T06:14:04;16.83;;;14.73;;
13975;SDS011;7062;49.792;9.946;2022-08-19T06:16:34;16.50;;;14.90;;
13975;SDS011;7062;49.792;9.946;2022-08-19T06:19:03;16.73;;;15.03;;
13975;SDS011;7062;49.792;9.946;2022-08-19T06:21:32;16.10;;;14.47;;
13975;SDS011;7062;49.792;9.946;2022-08-19T06:23:58;16.13;;;14.57;;
13975;SDS011;7062;49.792;9.946;2022-08-19T06:26:25;16.23;;;14.50;;
13975;SDS011;7062;49.792;9.946;2022-08-19T06:28:51;15.50;;;13.97;;
13975;SDS011;7062;49.792;9.946;2022-08-19T06:31:22;14.27;;;13.00;;
13975;SDS011;7062;49.792;9.946;2022-08-19T06:33:50;17.30;;;13.90;;
13975;SDS011;7062;49.792;9.946;2022-08-19T06:36:26;14.87;;;13.27;;
13975;SDS011;7062;49.792;9.946;2022-08-19T06:38:54;16.53;;;14.87;;
13975;SDS011;7062;49.792;9.946;2022-08-19T06:41:22;15.63;;;12.90;;
13975;SDS011;7062;49.792;9.946;2022-08-19T06:43:48;21.37;;;14.27;;
13975;SDS011;7062;49.792;9.946;2022-08-19T06:46:14;16.40;;;14.17;;
13975;SDS011;7062;49.792;9.946;2022-08-19T06:48:41;14.90;;;13.27;;
13975;SDS011;7062;49.792;9.946;2022-08-19T06:51:07;14.10;;;12.80;;
13975;SDS011;7062;49.792;9.946;2022-08-19T06:53:33;15.03;;;13.63;;
13975;SDS011;7062;49.792;9.946;2022-08-19T06:55:59;14.40;;;13.00;;
13975;SDS011;7062;49.792;9.946;2022-08-19T06:58:28;16.13;;;14.00;;
13975;SDS011;7062;49.792;9.946;2022-08-19T07:00:57;14.43;;;13.10;;
13975;SDS011;7062;49.792;9.946;2022-08-19T07:03:27;14.63;;;13.10;;
13975;SDS011;7062;49.792;9.946;2022-08-19T07:05:57;14.73;;;13.27;;
13975;SDS011;7062;49.792;9.946;2022-08-19T07:08:27;13.50;;;12.20;;
13975;SDS011;7062;49.792;9.946;2022-08-19T07:10:53;14.50;;;13.13;;
13975;SDS011;7062;49.792;9.946;2022-08-19T07:13:19;13.60;;;12.27;;
13975;SDS011;7062;49.792;9.946;2022-08-19T07:15:46;15.67;;;14.27;;
13975;SDS011;7062;49.792;9.946;2022-08-19T07:18:12;14.83;;;13.43;;
13975;SDS011;7062;49.792;9.946;2022-08-19T07:20:38;13.47;;;12.23;;
13975;SDS011;7062;49.792;9.946;2022-08-19T07:23:05;14.13;;;12.83;;
13975;SDS011;7062;49.792;9.946;2022-08-19T07:25:30;14.30;;;12.80;;
13975;SDS011;7062;49.792;9.946;2022-08-19T07:27:56;13.37;;;12.07;;
13975;SDS011;7062;49.792;9.946;2022-08-19T07:30:22;17.17;;;13.13;;
13975;SDS011;7062;49.792;9.946;2022-08-19T07:32:49;14.37;;;13.00;;
13975;SDS011;7062;49.792;9.946;2022-08-19T07:35:16;13.10;;;11.83;;
13975;SDS011;7062;49.792;9.946;2022-08-19T07:37:44;14.90;;;12.27;;
13975;SDS011;7062;49.792;9.946;2022-08-19T07:40:10;14.50;;;13.20;;
13975;SDS011;7062;49.792;9.946;2022-08-19T07:42:37;15.00;;;13.60;;
13975;SDS011;7062;49.792;9.946;2022-08-19T07:45:03;13.67;;;12.37;;
13975;SDS011;7062;49.792;9.946;2022-08-19T07:47:29;13.77;;;12.43;;
13975;SDS011;7062;49.792;9.946;2022-08-19T07:49:55;14.40;;;13.00;;
13975;SDS011;7062;49.792;9.946;2022-08-19T07:52:21;15.53;;;11.73;;
13975;SDS011;7062;49.792;9.946;2022-08-19T07:54:47;13.83;;;12.43;;
13975;SDS011;7062;49.792;9.946;2022-08-19T07:57:14;14.63;;;13.30;;
13975;SDS011;7062;49.792;9.946;2022-08-19T07:59:40;13.97;;;12.60;;
13975;SDS011;7062;49.792;9.946;2022-08-19T08:02:06;12.40;;;11.23;;
13975;SDS011;7062;49.792;9.946;2022-08-19T08:04:32;14.83;;;13.33;;
13975;SDS011;7062;49.792;9.946;2022-08-19T08:07:17;14.57;;;13.37;;
13975;SDS011;7062;49.792;9.946;2022-08-19T08:10:01;13.53;;;12.13;;
13975;SDS011;7062;49.792;9.946;2022-08-19T08:12:30;14.47;;;12.97;;
13975;SDS011;7062;49.792;9.946;2022-08-19T08:15:00;14.47;;;13.10;;
13975;SDS011;7062;49.792;9.946;2022-08-19T08:17:31;11.63;;;10.63;;
13975;SDS011;7062;49.792;9.946;2022-08-19T08:19:58;14.20;;;12.80;;
13975;SDS011;7062;49.792;9.946;2022-08-19T08:22:24;12.07;;;10.97;;
13975;SDS011;7062;49.792;9.946;2022-08-19T08:25:10;12.90;;;11.80;;
13975;SDS011;7062;49.792;9.946;2022-08-19T08:27:41;12.53;;;11.43;;
13975;SDS011;7062;49.792;9.946;2022-08-19T08:30:13;14.00;;;11.53;;
13975;SDS011;7062;49.792;9.946;2022-08-19T08:32:44;12.30;;;11.23;;
13975;SDS011;7062;49.792;9.946;2022-08-19T08:35:11;13.37;;;11.10;;
13975;SDS011;7062;49.792;9.946;2022-08-19T08:37:39;11.17;;;10.17;;
13975;SDS011;7062;49.792;9.946;2022-08-19T08:40:27;12.70;;;10.57;;
13975;SDS011;7062;49.792;9.946;2022-08-19T08:42:54;13.37;;;12.27;;
13975;SDS011;7062;49.792;9.946;2022-08-19T08:45:27;12.43;;;11.33;;
13975;SDS011;7062;49.792;9.946;2022-08-19T08:47:55;12.53;;;11.27;;
13975;SDS011;7062;49.792;9.946;2022-08-19T08:50:32;13.13;;;11.90;;
13975;SDS011;7062;49.792;9.946;2022-08-19T08:53:03;13.23;;;11.93;;
13975;SDS011;7062;49.792;9.946;2022-08-19T08:55:31;11.33;;;10.27;;
13975;SDS011;7062;49.792;9.946;2022-08-19T08:58:04;12.13;;;11.03;;
13975;SDS011;7062;49.792;9.946;2022-08-19T09:00:32;11.40;;;10.30;;
13975;SDS011;7062;49.792;9.946;2022-08-19T09:03:02;10.63;;;9.73;;
13975;SDS011;7062;49.792;9.946;2022-08-19T09:08:40;11.50;;;10.57;;
13975;SDS011;7062;49.792;9.946;2022-08-19T09:11:19;12.00;;;10.93;;
13975;SDS011;7062;49.792;9.946;2022-08-19T09:16:57;12.77;;;10.27;;
13975;SDS011;7062;49.792;9.946;2022-08-19T09:19:23;11.73;;;10.63;;
13975;SDS011;7062;49.792;9.946;2022-08-19T09:21:48;11.57;;;10.47;;
13975;SDS011;7062;49.792;9.946;2022-08-19T09:24:15;12.67;;;11.10;;
13975;SDS011;7062;49.792;9.946;2022-08-19T09:26:41;10.90;;;10.03;;
13975;SDS011;7062;49.792;9.946;2022-08-19T09:29:08;11.83;;;10.27;;
13975;SDS011;7062;49.792;9.946;2022-08-19T09:31:34;11.73;;;10.67;;
13975;SDS011;7062;49.792;9.946;2022-08-19T09:34:00;12.23;;;10.63;;
13975;SDS011;7062;49.792;9.946;2022-08-19T09:36:28;11.23;;;10.23;;
13975;SDS011;7062;49.792;9.946;2022-08-19T09:38:57;13.00;;;11.67;;
13975;SDS011;7062;49.792;9.946;2022-08-19T09:41:24;10.97;;;10.17;;
13975;SDS011;7062;49.792;9.946;2022-08-19T09:43:50;10.83;;;9.83;;
13975;SDS011;7062;49.792;9.946;2022-08-19T09:46:19;11.93;;;10.87;;
13975;SDS011;7062;49.792;9.946;2022-08-19T09:48:46;10.90;;;9.87;;
13975;SDS011;7062;49.792;9.946;2022-08-19T09:51:15;10.13;;;9.33;;
13975;SDS011;7062;49.792;9.946;2022-08-19T09:53:44;13.60;;;11.80;;
13975;SDS011;7062;49.792;9.946;2022-08-19T09:56:10;12.57;;;11.17;;
13975;SDS011;7062;49.792;9.946;2022-08-19T09:58:37;10.90;;;9.80;;
13975;SDS011;7062;49.792;9.946;2022-08-19T10:01:04;11.33;;;10.43;;
13975;SDS011;7062;49.792;9.946;2022-08-19T10:03:32;11.30;;;10.30;;
13975;SDS011;7062;49.792;9.946;2022-08-19T10:05:59;9.40;;;8.50;;
13975;SDS011;7062;49.792;9.946;2022-08-19T10:08:30;7.93;;;7.23;;
13975;SDS011;7062;49.792;9.946;2022-08-19T10:10:58;12.90;;;8.13;;
13975;SDS011;7062;49.792;9.946;2022-08-19T10:13:25;8.60;;;7.80;;
13975;SDS011;7062;49.792;9.946;2022-08-19T10:15:53;8.93;;;7.07;;
13975;SDS011;7062;49.792;9.946;2022-08-19T10:18:21;10.03;;;8.50;;
13975;SDS011;7062;49.792;9.946;2022-08-19T10:20:50;9.07;;;8.17;;
13975;SDS011;7062;49.792;9.946;2022-08-19T10:23:17;8.00;;;7.20;;
13975;SDS011;7062;49.792;9.946;2022-08-19T10:25:44;7.33;;;6.63;;
13975;SDS011;7062;49.792;9.946;2022-08-19T10:28:10;7.90;;;6.00;;
13975;SDS011;7062;49.792;9.946;2022-08-19T10:30:39;7.57;;;6.13;;
13975;SDS011;7062;49.792;9.946;2022-08-19T10:33:05;7.63;;;6.87;;
13975;SDS011;7062;49.792;9.946;2022-08-19T10:35:31;10.30;;;5.20;;
13975;SDS011;7062;49.792;9.946;2022-08-19T10:37:57;7.70;;;5.37;;
13975;SDS011;7062;49.792;9.946;2022-08-19T10:40:24;6.40;;;5.90;;
13975;SDS011;7062;49.792;9.946;2022-08-19T10:42:52;7.67;;;5.57;;
13975;SDS011;7062;49.792;9.946;2022-08-19T10:45:18;7.00;;;4.70;;
13975;SDS011;7062;49.792;9.946;2022-08-19T10:47:43;6.27;;;5.77;;
13975;SDS011;7062;49.792;9.946;2022-08-19T10:50:09;5.53;;;4.87;;
13975;SDS011;7062;49.792;9.946;2022-08-19T10:52:53;7.27;;;5.00;;
13975;SDS011;7062;49.792;9.946;2022-08-19T10:55:21;7.63;;;4.93;;
13975;SDS011;7062;49.792;9.946;2022-08-19T10:58:11;7.47;;;4.80;;
13975;SDS011;7062;49.792;9.946;2022-08-19T11:00:38;4.30;;;3.73;;
13975;SDS011;7062;49.792;9.946;2022-08-19T11:03:05;4.67;;;4.27;;
13975;SDS011;7062;49.792;9.946;2022-08-19T11:05:31;10.93;;;4.20;;
13975;SDS011;7062;49.792;9.946;2022-08-19T11:07:56;4.53;;;4.13;;
13975;SDS011;7062;49.792;9.946;2022-08-19T11:10:22;5.13;;;3.97;;
13975;SDS011;7062;49.792;9.946;2022-08-19T11:12:48;4.30;;;3.63;;
13975;SDS011;7062;49.792;9.946;2022-08-19T11:15:19;4.27;;;3.03;;
13975;SDS011;7062;49.792;9.946;2022-08-19T11:17:44;4.87;;;3.23;;
13975;SDS011;7062;49.792;9.946;2022-08-19T11:20:11;2.97;;;2.77;;
13975;SDS011;7062;49.792;9.946;2022-08-19T11:22:39;3.50;;;3.20;;
13975;SDS011;7062;49.792;9.946;2022-08-19T11:25:06;4.00;;;3.30;;
13975;SDS011;7062;49.792;9.946;2022-08-19T11:27:32;3.87;;;3.07;;
13975;SDS011;7062;49.792;9.946;2022-08-19T11:29:58;5.37;;;3.37;;
13975;SDS011;7062;49.792;9.946;2022-08-19T11:32:25;5.10;;;3.07;;
13975;SDS011;7062;49.792;9.946;2022-08-19T11:34:51;6.43;;;3.67;;
13975;SDS011;7062;49.792;9.946;2022-08-19T11:37:17;3.67;;;3.20;;
13975;SDS011;7062;49.792;9.946;2022-08-19T11:39:43;4.60;;;3.73;;
13975;SDS011;7062;49.792;9.946;2022-08-19T11:42:08;4.33;;;3.23;;
13975;SDS011;7062;49.792;9.946;2022-08-19T11:44:53;4.80;;;3.00;;
13975;SDS011;7062;49.792;9.946;2022-08-19T11:47:19;4.87;;;3.57;;
13975;SDS011;7062;49.792;9.946;2022-08-19T11:49:45;3.33;;;3.10;;
13975;SDS011;7062;49.792;9.946;2022-08-19T11:52:11;3.47;;;3.17;;
13975;SDS011;7062;49.792;9.946;2022-08-19T11:54:37;4.00;;;3.33;;
13975;SDS011;7062;49.792;9.946;2022-08-19T11:57:03;3.43;;;2.50;;
13975;SDS011;7062;49.792;9.946;2022-08-19T11:59:29;5.47;;;3.07;;
13975;SDS011;7062;49.792;9.946;2022-08-19T12:01:55;3.97;;;2.70;;
13975;SDS011;7062;49.792;9.946;2022-08-19T12:04:21;3.73;;;2.63;;
13975;SDS011;7062;49.792;9.946;2022-08-19T12:06:48;2.97;;;2.03;;
13975;SDS011;7062;49.792;9.946;2022-08-19T12:09:15;4.17;;;2.43;;
13975;SDS011;7062;49.792;9.946;2022-08-19T12:11:42;3.80;;;2.57;;
13975;SDS011;7062;49.792;9.946;2022-08-19T12:14:09;2.90;;;2.60;;
13975;SDS011;7062;49.792;9.946;2022-08-19T12:16:37;3.97;;;3.20;;
13975;SDS011;7062;49.792;9.946;2022-08-19T12:19:03;5.50;;;3.00;;
13975;SDS011;7062;49.792;9.946;2022-08-19T12:21:31;3.23;;;2.60;;
13975;SDS011;7062;49.792;9.946;2022-08-19T12:23:58;4.10;;;3.73;;
13975;SDS011;7062;49.792;9.946;2022-08-19T12:26:26;3.80;;;3.10;;
13975;SDS011;7062;49.792;9.946;2022-08-19T12:28:54;5.47;;;2.97;;
13975;SDS011;7062;49.792;9.946;2022-08-19T12:31:20;5.43;;;3.17;;
13975;SDS011;7062;49.792;9.946;2022-08-19T12:33:46;7.83;;;2.77;;
13975;SDS011;7062;49.792;9.946;2022-08-19T12:36:13;3.30;;;2.40;;
13975;SDS011;7062;49.792;9.946;2022-08-19T12:38:40;2.63;;;2.43;;
13975;SDS011;7062;49.792;9.946;2022-08-19T12:41:08;2.50;;;2.00;;
13975;SDS011;7062;49.792;9.946;2022-08-19T12:43:35;4.30;;;2.60;;
13975;SDS011;7062;49.792;9.946;2022-08-19T12:46:02;3.50;;;2.57;;
13975;SDS011;7062;49.792;9.946;2022-08-19T12:48:29;4.17;;;2.40;;
13975;SDS011;7062;49.792;9.946;2022-08-19T12:50:55;5.10;;;3.50;;
13975;SDS011;7062;49.792;9.946;2022-08-19T12:53:21;2.67;;;2.30;;
13975;SDS011;7062;49.792;9.946;2022-08-19T12:55:47;4.30;;;2.47;;
13975;SDS011;7062;49.792;9.946;2022-08-19T12:58:13;4.50;;;2.83;;
13975;SDS011;7062;49.792;9.946;2022-08-19T13:00:39;3.77;;;2.73;;
13975;SDS011;7062;49.792;9.946;2022-08-19T13:03:05;3.00;;;2.07;;
13975;SDS011;7062;49.792;9.946;2022-08-19T13:05:31;3.17;;;2.50;;
13975;SDS011;7062;49.792;9.946;2022-08-19T13:07:59;2.83;;;2.60;;
13975;SDS011;7062;49.792;9.946;2022-08-19T13:10:27;3.60;;;2.13;;
13975;SDS011;7062;49.792;9.946;2022-08-19T13:12:59;4.23;;;2.03;;
13975;SDS011;7062;49.792;9.946;2022-08-19T13:15:33;3.57;;;2.10;;
13975;SDS011;7062;49.792;9.946;2022-08-19T13:18:00;2.20;;;2.00;;
13975;SDS011;7062;49.792;9.946;2022-08-19T13:20:26;2.27;;;1.93;;
13975;SDS011;7062;49.792;9.946;2022-08-19T13:22:52;2.10;;;1.90;;
13975;SDS011;7062;49.792;9.946;2022-08-19T13:25:18;2.20;;;1.70;;
13975;SDS011;7062;49.792;9.946;2022-08-19T13:27:45;1.63;;;1.33;;
13975;SDS011;7062;49.792;9.946;2022-08-19T13:30:12;1.70;;;1.40;;
13975;SDS011;7062;49.792;9.946;2022-08-19T13:32:58;3.67;;;1.50;;
13975;SDS011;7062;49.792;9.946;2022-08-19T13:35:36;4.03;;;1.50;;
13975;SDS011;7062;49.792;9.946;2022-08-19T13:38:02;2.60;;;1.20;;
13975;SDS011;7062;49.792;9.946;2022-08-19T13:40:30;2.03;;;1.83;;
13975;SDS011;7062;49.792;9.946;2022-08-19T13:42:56;4.80;;;1.93;;
13975;SDS011;7062;49.792;9.946;2022-08-19T13:45:23;4.60;;;2.03;;
13975;SDS011;7062;49.792;9.946;2022-08-19T13:47:50;1.87;;;1.23;;
13975;SDS011;7062;49.792;9.946;2022-08-19T13:50:18;2.07;;;1.60;;
13975;SDS011;7062;49.792;9.946;2022-08-19T13:52:46;2.83;;;1.53;;
13975;SDS011;7062;49.792;9.946;2022-08-19T13:55:12;2.13;;;1.60;;
13975;SDS011;7062;49.792;9.946;2022-08-19T13:57:39;4.30;;;1.90;;
13975;SDS011;7062;49.792;9.946;2022-08-19T14:00:08;2.33;;;1.40;;
13975;SDS011;7062;49.792;9.946;2022-08-19T14:02:37;1.83;;;1.50;;
13975;SDS011;7062;49.792;9.946;2022-08-19T14:05:09;1.63;;;1.37;;
13975;SDS011;7062;49.792;9.946;2022-08-19T14:07:36;2.00;;;1.73;;
13975;SDS011;7062;49.792;9.946;2022-08-19T14:10:05;2.20;;;1.70;;
13975;SDS011;7062;49.792;9.946;2022-08-19T14:12:32;3.53;;;1.90;;
13975;SDS011;7062;49.792;9.946;2022-08-19T14:14:59;4.37;;;1.90;;
13975;SDS011;7062;49.792;9.946;2022-08-19T14:17:25;2.13;;;1.50;;
13975;SDS011;7062;49.792;9.946;2022-08-19T14:19:59;1.67;;;1.57;;
13975;SDS011;7062;49.792;9.946;2022-08-19T14:22:29;2.43;;;1.53;;
13975;SDS011;7062;49.792;9.946;2022-08-19T14:24:56;3.60;;;1.63;;
13975;SDS011;7062;49.792;9.946;2022-08-19T14:27:22;4.30;;;1.40;;
13975;SDS011;7062;49.792;9.946;2022-08-19T14:29:49;2.07;;;1.73;;
13975;SDS011;7062;49.792;9.946;2022-08-19T14:32:14;3.17;;;1.90;;
13975;SDS011;7062;49.792;9.946;2022-08-19T14:34:40;2.70;;;1.83;;
13975;SDS011;7062;49.792;9.946;2022-08-19T14:37:06;1.60;;;1.03;;
13975;SDS011;7062;49.792;9.946;2022-08-19T14:39:32;2.30;;;1.40;;
13975;SDS011;7062;49.792;9.946;2022-08-19T14:41:58;1.50;;;1.40;;
13975;SDS011;7062;49.792;9.946;2022-08-19T14:44:24;1.40;;;1.27;;
13975;SDS011;7062;49.792;9.946;2022-08-19T14:46:49;2.33;;;1.47;;
13975;SDS011;7062;49.792;9.946;2022-08-19T14:49:15;3.73;;;1.30;;
13975;SDS011;7062;49.792;9.946;2022-08-19T14:51:41;2.13;;;1.80;;
13975;SDS011;7062;49.792;9.946;2022-08-19T14:54:07;1.37;;;1.20;;
13975;SDS011;7062;49.792;9.946;2022-08-19T14:56:32;2.67;;;1.40;;